Leuchars, United Kingdom
Current Conditions -  °F | °C
As of 4:50 AM on Tuesday 21 Oct 2014 (Local Time) from EGQL Reporting Station
Light Rain Light Rain  
Wind Chill: 55°   Ceiling: 2500
Heat Index: 55°   Visibility: 5mi
Dew Point: 52°   Wind: 18mph
Humidity: 88%   Direction: 210°SSW
Pressure: 29"   Gusts: NA
Location:  56.38°N, 2.89°W
Report Text: EGQL 210350Z 21016KT 8000 -RA BKN025 13/11 Q0982 BLU
Loading
Personal Weather Stations






























Interactive Weather Map New forecast layout! Learn more

10-Day Weather Forecast

Advertisements
Track Severe Weather on mobile